Peotone Weather

Nearby METAR Reports

 

KIGQ - Lansing, Illinois, USA
Distance from station: NE 19mi, 30km
Updated: Tue, 27-Feb-2024 1:55pm CST
Mostly cloudy
Mostly cloudy
 Wind from SSW
Wind: SSW 16 mph , 26 km/h, Gust: 22 mph , 35 km/h
Temperature: 68°F , 20°C
Dew Point: 61°F , 16°C
Humidity: 78%
Barometer: 29.35 inHg , 993.9 hPa
Clouds: Mostly cloudy
Visibility: 10 miles , 16 km
Cloud details: Mostly cloudy 2500 ft
2024/02/27 19:55 KIGQ 271955Z AUTO 21014G19KT 10SM BKN025 20/16 A2935 RMK AO2 T02020155
KIKK - Kankakee, Illinois, USA
Distance from station: S 19mi, 30km
Updated: Tue, 27-Feb-2024 1:55pm CST
Overcast
Overcast
 Wind from SSW
Wind: SSW 12 mph , 19 km/h, Gust: 16 mph , 26 km/h
Temperature: 68°F , 20°C
Dew Point: 59°F , 15°C
Humidity: 73%
Barometer: 29.35 inHg , 993.9 hPa
Clouds: Overcast
Visibility: 10 miles , 16 km
Cloud details: Overcast 2400 ft
2024/02/27 19:55 KIKK 271955Z AUTO 21010G14KT 170V350 10SM OVC024 20/15 A2935 RMK AO2 T02040148 PWINO
 
KSJC - Joliet, Illinois, USA
Distance from station: WNW 24mi, 38km
Updated: Tue, 27-Feb-2024 1:53pm CST
Mostly cloudy
Mostly cloudy
 Wind from NW
Wind: NW 12 mph , 19 km/h, Gust: 18 mph , 30 km/h
Temperature: 61°F , 16°C
Dew Point: 36°F , 2°C
Humidity: 39%
Barometer: 30.09 inHg , 1019 hPa
Clouds: Mostly cloudy
Visibility: 10 miles , 16 km
Cloud details: Few Clouds 2600 ft
Mostly cloudy 9000 ft
2024/02/27 19:53 KSJC 271953Z 32010G16KT 10SM FEW026 BKN090 16/02 A3009 RMK AO2 SLP190 T01560017 $
KLOT - Romeoville, Illinois, USA
Distance from station: NW 26mi, 41km
Updated: Tue, 27-Feb-2024 1:45pm CST
Mostly cloudy
Mostly cloudy
 Wind from S
Wind: S 15 mph , 24 km/h
Temperature: 72°F , 22°C
Dew Point: 61°F , 16°C
Humidity: 69%
Barometer: 29.33 inHg , 993.2 hPa
Clouds: Mostly cloudy
Visibility: 10 miles , 16 km
Cloud details: Mostly cloudy 3200 ft
2024/02/27 19:45 KLOT 271945Z 19013KT 10SM BKN032 22/16 A2933
 
KMDW - Midway Airport Chicago, Illinois, USA
Distance from station: N 31mi, 50km
Updated: Tue, 27-Feb-2024 1:53pm CST
Mostly cloudy
Mostly cloudy
 Wind from S
Wind: S 14 mph , 22 km/h, Gust: 30 mph , 48 km/h
Temperature: 72°F , 22°C
Dew Point: 55°F , 13°C
Humidity: 57%
Barometer: 29.31 inHg , 992.5 hPa
Clouds: Mostly cloudy
Visibility: 10 miles , 16 km
Cloud details: Few Clouds 3500 ft
Mostly cloudy 25000 ft
2024/02/27 19:53 KMDW 271953Z 19012G26KT 10SM FEW035 BKN250 22/13 A2931 RMK AO2 PK WND 20026/1950 SLP921 T02220133
KC09 - Morris, Illinois, USA
Distance from station: W 34mi, 54km
Updated: Tue, 27-Feb-2024 1:55pm CST
Clear
Clear
 Wind from SW
Wind: SW 12 mph , 19 km/h
Temperature: 73°F , 23°C
Dew Point: 59°F , 15°C
Humidity: 61%
Barometer: 29.31 inHg , 992.5 hPa
Clouds: Clear
Visibility: 10 miles , 16 km
2024/02/27 19:55 KC09 271955Z AUTO 23010KT 10SM CLR 23/15 A2931 RMK AO2 T02270146

Metar display script from Saratoga-Weather.org